Time;durP1;ratioP1;P1;durP2;ratioP2;P2;SDS_P1;SDS_P2;PMS_P1;PMS_P2;Temp;Humidity;BMP_temperature;BMP_pressure;BME280_temperature;BME280_humidity;BME280_pressure;Samples;Min_cycle;Max_cycle;Signal;HPM_P1;HPM_P2
2022/01/26 00:06:31;;;;;;;38.70;15.87;;;3.60;99.90;;;;;;5040165;28;20541;-64
2022/01/26 00:08:57;;;;;;;38.23;15.93;;;3.60;99.90;;;;;;5048876;28;20180;-63
2022/01/26 00:11:23;;;;;;;43.47;16.83;;;3.60;99.90;;;;;;5056131;28;20203;-68
2022/01/26 00:13:50;;;;;;;38.60;15.80;;;3.70;99.90;;;;;;5060214;28;20185;-63
2022/01/26 00:16:26;;;;;;;41.57;16.50;;;3.70;99.90;;;;;;5039765;28;20265;-61
2022/01/26 00:18:54;;;;;;;35.80;14.47;;;3.70;99.90;;;;;;5043083;28;20184;-65
2022/01/26 00:21:34;;;;;;;33.63;14.17;;;3.70;99.90;;;;;;5036524;28;20180;-63
2022/01/26 00:29:15;;;;;;;32.43;15.40;;;3.70;99.90;;;;;;5034630;28;20229;-62
2022/01/26 00:40:15;;;;;;;29.23;14.80;;;3.60;99.90;;;;;;5042099;28;20191;-67
2022/01/26 00:42:42;;;;;;;30.27;14.30;;;3.70;99.90;;;;;;5035756;28;20180;-63
2022/01/26 00:45:09;;;;;;;23.20;12.80;;;3.70;99.90;;;;;;5037301;28;20201;-63
2022/01/26 00:47:35;;;;;;;26.00;12.40;;;3.70;99.90;;;;;;5036535;28;20218;-62
2022/01/26 00:50:05;;;;;;;24.70;12.20;;;3.60;99.90;;;;;;5039207;28;20200;-63
2022/01/26 00:52:42;;;;;;;26.83;12.77;;;3.70;99.90;;;;;;5038187;28;20186;-63
2022/01/26 00:55:14;;;;;;;27.13;13.00;;;3.70;99.90;;;;;;5036402;28;20185;-65
2022/01/26 00:57:39;;;;;;;25.63;13.47;;;3.60;99.90;;;;;;5037972;28;20188;-63
2022/01/26 01:00:17;;;;;;;29.47;14.07;;;3.70;99.90;;;;;;5038443;28;20191;-69
2022/01/26 01:02:43;;;;;;;26.23;14.17;;;3.70;99.90;;;;;;5038003;28;20348;-64
2022/01/26 01:05:17;;;;;;;30.60;13.87;;;3.70;99.90;;;;;;5035988;28;20619;-64
2022/01/26 01:07:45;;;;;;;26.23;13.83;;;3.60;99.90;;;;;;5037256;28;20196;-65
2022/01/26 01:10:10;;;;;;;29.63;14.13;;;3.60;99.90;;;;;;5035424;28;20220;-63
2022/01/26 01:12:42;;;;;;;30.53;12.80;;;3.70;99.90;;;;;;5039929;28;20618;-63
2022/01/26 01:15:08;;;;;;;27.23;12.03;;;3.70;99.90;;;;;;5034618;28;20332;-63
2022/01/26 01:17:40;;;;;;;21.43;10.53;;;3.60;99.90;;;;;;5038850;28;20544;-64
2022/01/26 01:34:00;;;;;;;29.37;13.87;;;3.70;99.90;;;;;;5041163;28;20319;-64
2022/01/26 01:36:26;;;;;;;26.73;12.83;;;3.80;99.90;;;;;;5039117;28;20238;-62
2022/01/26 01:38:54;;;;;;;27.07;13.10;;;3.70;99.90;;;;;;5037778;28;20198;-64
2022/01/26 01:41:20;;;;;;;24.00;11.57;;;3.80;99.90;;;;;;5037384;28;20255;-70
2022/01/26 01:43:45;;;;;;;21.67;10.93;;;3.70;99.90;;;;;;5035192;28;20209;-63
2022/01/26 01:46:11;;;;;;;25.70;12.57;;;3.80;99.90;;;;;;5036548;28;20204;-62
2022/01/26 01:48:37;;;;;;;24.13;11.87;;;3.80;99.90;;;;;;5035308;28;20188;-64
2022/01/26 01:51:07;;;;;;;20.53;10.03;;;3.80;99.90;;;;;;5035587;28;20674;-64
2022/01/26 01:53:41;;;;;;;21.47;10.83;;;3.80;99.90;;;;;;5034021;28;20181;-63
2022/01/26 01:56:10;;;;;;;24.10;11.63;;;3.80;99.90;;;;;;5036788;28;20199;-64
2022/01/26 01:58:36;;;;;;;24.33;11.77;;;3.70;99.90;;;;;;5038783;28;20220;-63
2022/01/26 02:01:03;;;;;;;24.47;12.03;;;3.70;99.90;;;;;;5038012;28;20186;-64
2022/01/26 02:03:29;;;;;;;16.40;8.03;;;3.70;99.90;;;;;;5036892;28;20299;-63
2022/01/26 02:05:54;;;;;;;23.47;10.87;;;3.80;99.90;;;;;;5034420;28;20269;-64
2022/01/26 02:08:20;;;;;;;24.83;10.83;;;3.60;99.90;;;;;;5035635;28;20200;-62
2022/01/26 02:10:46;;;;;;;24.43;10.97;;;3.60;99.90;;;;;;5038536;28;20177;-63
2022/01/26 02:13:41;;;;;;;25.97;11.17;;;3.70;99.90;;;;;;5035975;28;20202;-62
2022/01/26 02:16:39;;;;;;;23.43;11.00;;;3.60;99.90;;;;;;5034530;28;20196;-63
2022/01/26 02:49:40;;;;;;;21.03;11.07;;;3.60;99.90;;;;;;5036645;28;20183;-65
2022/01/26 02:54:44;;;;;;;22.37;11.33;;;3.60;99.90;;;;;;5036584;28;20191;-64
2022/01/26 02:57:33;;;;;;;21.03;11.33;;;3.80;99.90;;;;;;5035322;28;20181;-63
2022/01/26 03:05:02;;;;;;;21.13;10.53;;;3.70;99.90;;;;;;5036367;28;20205;-70
2022/01/26 03:13:12;;;;;;;20.47;10.20;;;3.60;99.90;;;;;;5037775;28;20203;-69
2022/01/26 03:15:43;;;;;;;21.03;11.70;;;3.60;99.90;;;;;;5042128;28;20176;-65
2022/01/26 03:20:39;;;;;;;20.20;11.00;;;3.50;99.90;;;;;;5038076;28;20173;-61
2022/01/26 03:28:58;;;;;;;20.80;10.23;;;3.50;99.90;;;;;;5041683;28;20195;-63
2022/01/26 03:32:23;;;;;;;20.53;11.10;;;3.50;99.90;;;;;;5043175;28;20162;-64
2022/01/26 03:34:13;;;;;;;22.17;11.70;;;3.50;99.90;;;;;;5040845;28;20980;-63
2022/01/26 03:36:49;;;;;;;19.70;10.37;;;3.50;99.90;;;;;;5040462;28;20228;-62
2022/01/26 03:39:18;;;;;;;20.47;11.40;;;3.50;99.90;;;;;;5040276;28;20288;-65
2022/01/26 03:41:50;;;;;;;20.97;10.90;;;3.50;99.90;;;;;;5041457;28;20608;-64
2022/01/26 03:44:17;;;;;;;18.87;10.50;;;3.60;99.90;;;;;;5040043;28;20233;-63
2022/01/26 03:46:43;;;;;;;22.23;10.73;;;3.60;99.90;;;;;;5040370;28;20199;-63
2022/01/26 03:49:10;;;;;;;18.63;9.80;;;3.50;99.90;;;;;;5039382;28;20234;-63
2022/01/26 03:51:36;;;;;;;17.90;10.20;;;3.50;99.90;;;;;;5038981;28;20666;-63
2022/01/26 03:54:03;;;;;;;18.63;9.47;;;3.60;99.90;;;;;;5039716;28;20242;-65
2022/01/26 03:56:29;;;;;;;16.63;10.03;;;3.50;99.90;;;;;;5038042;28;20569;-64
2022/01/26 03:58:55;;;;;;;17.63;11.00;;;3.60;99.90;;;;;;5043275;28;20242;-63
2022/01/26 04:01:21;;;;;;;19.40;9.30;;;3.60;99.90;;;;;;5037911;28;20239;-62
2022/01/26 04:03:47;;;;;;;21.30;10.77;;;3.50;99.90;;;;;;5036928;28;20262;-63
2022/01/26 04:06:12;;;;;;;19.17;10.27;;;3.50;99.90;;;;;;5033395;28;20212;-64
2022/01/26 04:08:41;;;;;;;17.47;10.10;;;3.50;99.90;;;;;;5039080;28;20636;-63
2022/01/26 04:13:32;;;;;;;19.10;10.43;;;3.50;99.90;;;;;;5038764;28;20296;-62
2022/01/26 04:15:58;;;;;;;20.83;10.20;;;3.50;99.90;;;;;;5035188;28;20202;-63
2022/01/26 04:18:29;;;;;;;16.70;9.83;;;3.50;99.90;;;;;;5039361;28;20196;-63
2022/01/26 04:20:59;;;;;;;18.07;9.93;;;3.50;99.90;;;;;;5039281;28;20527;-62
2022/01/26 04:23:35;;;;;;;18.87;10.40;;;3.50;99.90;;;;;;5036248;28;20181;-63
2022/01/26 04:26:00;;;;;;;18.63;9.47;;;3.60;99.90;;;;;;5041635;28;20176;-63
2022/01/26 04:28:33;;;;;;;17.17;9.13;;;3.50;99.90;;;;;;5040781;28;20203;-62
2022/01/26 04:30:59;;;;;;;16.37;9.37;;;3.50;99.90;;;;;;5037789;28;20250;-64
2022/01/26 04:33:24;;;;;;;17.60;9.20;;;3.50;99.90;;;;;;5041113;28;20618;-63
2022/01/26 04:35:50;;;;;;;16.40;9.33;;;3.50;99.90;;;;;;5040205;28;20184;-63
2022/01/26 04:38:24;;;;;;;18.17;9.13;;;3.40;99.90;;;;;;5035903;28;20195;-63
2022/01/26 04:41:09;;;;;;;15.97;9.23;;;3.50;99.90;;;;;;5037898;28;20176;-63
2022/01/26 04:43:39;;;;;;;18.13;9.23;;;3.60;99.90;;;;;;5040577;28;20227;-63
2022/01/26 04:46:05;;;;;;;13.67;8.30;;;3.60;99.90;;;;;;5037419;28;20212;-63
2022/01/26 04:48:31;;;;;;;18.33;9.50;;;3.50;99.90;;;;;;5036171;28;20184;-62
2022/01/26 04:50:58;;;;;;;14.33;8.63;;;3.50;99.90;;;;;;5037511;28;20645;-64
2022/01/26 04:53:23;;;;;;;13.93;8.73;;;3.50;99.90;;;;;;5042272;28;20199;-64
2022/01/26 04:55:49;;;;;;;16.53;9.70;;;3.50;99.90;;;;;;5036877;28;20238;-62
2022/01/26 04:58:15;;;;;;;21.17;10.50;;;3.40;99.90;;;;;;5040593;28;20181;-63
2022/01/26 05:00:40;;;;;;;22.40;10.33;;;3.50;99.90;;;;;;5036387;28;20272;-64
2022/01/26 05:03:06;;;;;;;16.40;9.07;;;3.40;99.90;;;;;;5040803;28;20195;-65
2022/01/26 05:05:32;;;;;;;16.03;9.20;;;3.50;99.90;;;;;;5034606;28;20220;-65
2022/01/26 05:07:57;;;;;;;16.13;9.67;;;3.40;99.90;;;;;;5035355;28;20243;-63
2022/01/26 05:10:23;;;;;;;20.73;9.90;;;3.50;99.90;;;;;;5034901;28;20181;-63
2022/01/26 05:12:49;;;;;;;12.30;7.17;;;3.40;99.90;;;;;;5035914;28;20193;-63
2022/01/26 05:15:15;;;;;;;20.03;9.77;;;3.50;99.90;;;;;;5038217;28;20567;-63
2022/01/26 05:17:41;;;;;;;20.77;10.23;;;3.50;99.90;;;;;;5039364;28;20552;-62
2022/01/26 05:20:09;;;;;;;20.47;10.13;;;3.40;99.90;;;;;;5040645;28;20558;-63
2022/01/26 05:22:37;;;;;;;14.40;9.10;;;3.50;99.90;;;;;;5046147;28;20272;-62
2022/01/26 05:25:03;;;;;;;19.67;10.03;;;3.60;99.90;;;;;;5036853;28;20565;-63
2022/01/26 05:27:29;;;;;;;19.03;10.10;;;3.60;99.90;;;;;;5037117;28;20266;-62
2022/01/26 05:29:54;;;;;;;16.37;8.77;;;3.60;99.90;;;;;;5037728;28;20272;-62
2022/01/26 05:32:20;;;;;;;17.73;9.87;;;3.50;99.90;;;;;;5038368;28;20193;-62
2022/01/26 05:34:46;;;;;;;22.00;10.87;;;3.50;99.90;;;;;;5038753;28;20533;-67
2022/01/26 05:37:11;;;;;;;17.77;10.27;;;3.50;99.90;;;;;;5038512;28;20340;-62
2022/01/26 05:39:38;;;;;;;18.97;10.27;;;3.30;99.90;;;;;;5042182;28;20242;-62
2022/01/26 05:42:05;;;;;;;19.27;9.57;;;3.40;99.90;;;;;;5037982;28;20172;-62
2022/01/26 05:44:31;;;;;;;23.37;10.87;;;3.50;99.90;;;;;;5039030;28;20296;-62
2022/01/26 05:46:56;;;;;;;22.97;11.70;;;3.50;99.90;;;;;;5039273;28;20326;-64
2022/01/26 05:49:22;;;;;;;19.73;10.77;;;3.50;99.90;;;;;;5038432;28;20263;-65
2022/01/26 05:51:48;;;;;;;21.30;10.97;;;3.50;99.90;;;;;;5038125;28;20209;-62
2022/01/26 05:54:18;;;;;;;20.83;10.80;;;3.60;99.90;;;;;;5039119;28;20176;-62
2022/01/26 05:56:46;;;;;;;20.17;11.10;;;3.60;99.90;;;;;;5037455;28;20183;-68
2022/01/26 05:59:21;;;;;;;19.17;11.00;;;3.50;99.90;;;;;;5034420;28;20320;-69
2022/01/26 06:01:48;;;;;;;18.47;10.73;;;3.50;99.90;;;;;;5033654;28;20172;-62
2022/01/26 06:04:13;;;;;;;17.83;10.17;;;3.50;99.90;;;;;;5040805;28;20208;-63
2022/01/26 06:06:39;;;;;;;18.53;11.73;;;3.50;99.90;;;;;;5038731;28;20179;-63
2022/01/26 06:09:05;;;;;;;17.97;10.40;;;3.50;99.90;;;;;;5040489;28;20188;-62
2022/01/26 06:11:30;;;;;;;21.60;11.17;;;3.50;99.90;;;;;;5037837;28;20299;-61
2022/01/26 06:13:56;;;;;;;18.97;10.20;;;3.40;99.90;;;;;;5042020;28;20294;-61
2022/01/26 06:16:22;;;;;;;19.60;10.90;;;3.50;99.90;;;;;;5052847;28;20184;-65
2022/01/26 06:18:48;;;;;;;22.93;11.17;;;3.50;99.90;;;;;;5054761;28;20193;-62
2022/01/26 06:21:13;;;;;;;20.20;10.30;;;3.70;99.90;;;;;;5059846;28;20272;-63
2022/01/26 06:23:39;;;;;;;19.90;11.27;;;3.50;99.90;;;;;;5037120;28;20221;-63
2022/01/26 06:26:06;;;;;;;16.43;9.80;;;3.50;99.90;;;;;;5035523;28;20220;-65
2022/01/26 06:28:32;;;;;;;20.40;10.77;;;3.40;99.90;;;;;;5034630;28;20184;-64
2022/01/26 06:31:09;;;;;;;18.53;11.03;;;3.50;99.90;;;;;;5031830;28;20189;-65
2022/01/26 06:33:35;;;;;;;16.90;10.97;;;3.50;99.90;;;;;;5033796;28;20180;-62
2022/01/26 06:36:03;;;;;;;17.60;10.27;;;3.50;99.90;;;;;;5036774;28;20186;-63
2022/01/26 06:38:29;;;;;;;16.23;10.83;;;3.50;99.90;;;;;;5037389;28;20189;-64
2022/01/26 06:41:00;;;;;;;22.23;11.17;;;3.50;99.90;;;;;;5036030;28;20182;-63
2022/01/26 06:43:29;;;;;;;18.73;10.33;;;3.40;99.90;;;;;;5032828;28;20199;-63
2022/01/26 06:46:04;;;;;;;18.00;11.23;;;3.40;99.90;;;;;;5036241;28;20173;-62
2022/01/26 06:51:14;;;;;;;19.80;11.07;;;3.40;99.90;;;;;;5042741;28;20236;-62
2022/01/26 06:53:40;;;;;;;17.37;10.67;;;3.40;99.90;;;;;;5040204;28;20185;-62
2022/01/26 06:56:06;;;;;;;19.03;11.23;;;3.40;99.90;;;;;;5042032;28;20525;-69
2022/01/26 06:58:31;;;;;;;19.97;11.90;;;3.30;99.90;;;;;;5038596;28;21220;-62
2022/01/26 07:00:57;;;;;;;19.70;12.17;;;3.50;99.90;;;;;;5034981;28;20709;-64
2022/01/26 07:03:24;;;;;;;21.33;12.40;;;3.40;99.90;;;;;;5040330;28;20195;-64
2022/01/26 07:05:49;;;;;;;22.53;12.73;;;3.40;99.90;;;;;;5037603;28;20181;-62
2022/01/26 07:08:15;;;;;;;24.10;12.73;;;3.40;99.90;;;;;;5038253;28;20300;-62
2022/01/26 07:10:41;;;;;;;21.20;12.53;;;3.40;99.90;;;;;;5041482;28;20250;-62
2022/01/26 07:13:07;;;;;;;19.30;12.10;;;3.50;99.90;;;;;;5056427;28;20167;-62
2022/01/26 07:23:46;;;;;;;20.23;11.70;;;3.40;99.90;;;;;;5040727;28;20703;-61
2022/01/26 07:26:12;;;;;;;24.13;12.07;;;3.20;99.90;;;;;;5040927;28;20188;-66
2022/01/26 07:28:39;;;;;;;19.23;10.53;;;3.30;99.90;;;;;;5042923;28;20183;-62
2022/01/26 07:31:06;;;;;;;27.07;12.27;;;3.40;99.90;;;;;;5040965;28;20518;-62
2022/01/26 07:33:32;;;;;;;19.33;11.23;;;3.40;99.90;;;;;;5043955;28;20211;-62
2022/01/26 07:35:58;;;;;;;20.20;12.13;;;3.40;99.90;;;;;;5041001;28;20185;-62
2022/01/26 07:38:27;;;;;;;19.63;11.53;;;3.50;99.90;;;;;;5040268;28;20212;-63
2022/01/26 07:40:53;;;;;;;19.30;11.77;;;3.40;99.90;;;;;;5039889;28;20180;-62
2022/01/26 07:43:19;;;;;;;20.60;10.43;;;3.50;99.90;;;;;;5044397;28;20179;-61
2022/01/26 07:45:45;;;;;;;18.43;10.17;;;3.40;99.90;;;;;;5040157;28;20212;-62
2022/01/26 07:48:10;;;;;;;18.80;10.20;;;3.40;99.90;;;;;;5039441;28;20192;-64
2022/01/26 07:50:36;;;;;;;20.87;12.03;;;3.50;99.90;;;;;;5046444;28;20187;-63
2022/01/26 07:53:03;;;;;;;20.53;10.60;;;3.50;99.90;;;;;;5044567;28;20330;-62
2022/01/26 07:55:29;;;;;;;16.20;9.20;;;3.50;99.90;;;;;;5043509;28;20211;-64
2022/01/26 07:57:56;;;;;;;21.80;11.83;;;3.50;99.90;;;;;;5042103;28;20683;-64
2022/01/26 08:00:22;;;;;;;21.57;11.67;;;3.50;99.90;;;;;;5040628;28;20201;-66
2022/01/26 08:02:48;;;;;;;16.37;8.47;;;3.40;99.90;;;;;;5039808;28;20191;-62
2022/01/26 08:05:15;;;;;;;23.50;9.60;;;3.40;99.90;;;;;;5040719;28;20212;-63
2022/01/26 08:07:41;;;;;;;16.73;9.07;;;3.30;99.90;;;;;;5033720;28;20186;-63
2022/01/26 08:10:07;;;;;;;21.10;10.80;;;3.30;99.90;;;;;;5034768;28;20499;-63
2022/01/26 08:12:33;;;;;;;20.10;9.57;;;3.30;99.90;;;;;;5041894;28;20199;-65
2022/01/26 08:15:00;;;;;;;22.93;11.70;;;3.30;99.90;;;;;;5049201;28;20630;-63
2022/01/26 08:17:26;;;;;;;17.77;9.73;;;3.50;99.90;;;;;;5046675;28;20199;-63
2022/01/26 08:19:54;;;;;;;17.70;9.73;;;3.40;99.90;;;;;;5041385;28;20240;-62
2022/01/26 08:22:20;;;;;;;20.07;10.47;;;3.50;99.90;;;;;;5038113;28;20173;-62
2022/01/26 08:24:47;;;;;;;16.20;9.70;;;3.60;99.90;;;;;;5039608;28;20224;-64
2022/01/26 08:27:15;;;;;;;17.13;9.47;;;3.50;99.90;;;;;;5037704;28;20185;-63
2022/01/26 08:29:48;;;;;;;16.80;9.50;;;3.50;99.90;;;;;;5037150;28;23732;-62
2022/01/26 08:32:14;;;;;;;17.37;10.00;;;3.50;99.90;;;;;;5036730;28;20184;-66
2022/01/26 08:34:40;;;;;;;14.13;8.07;;;3.50;99.90;;;;;;5037066;28;20531;-62
2022/01/26 08:37:06;;;;;;;18.07;6.67;;;3.50;99.90;;;;;;5039888;28;20236;-63
2022/01/26 08:39:33;;;;;;;12.67;7.97;;;3.50;99.90;;;;;;5037377;28;20263;-63
2022/01/26 08:42:00;;;;;;;15.43;8.40;;;3.50;99.90;;;;;;5040403;28;20192;-62
2022/01/26 08:44:25;;;;;;;12.57;7.40;;;3.50;99.90;;;;;;5041499;28;20672;-63
2022/01/26 08:46:52;;;;;;;23.30;9.23;;;3.50;99.90;;;;;;5038474;28;20179;-68
2022/01/26 08:49:17;;;;;;;11.20;5.83;;;3.60;99.90;;;;;;5045191;28;20285;-63
2022/01/26 08:51:43;;;;;;;14.73;8.33;;;3.50;99.90;;;;;;5038351;28;20306;-65
2022/01/26 08:54:10;;;;;;;12.37;7.07;;;3.60;99.90;;;;;;5034233;28;20188;-66
2022/01/26 08:56:37;;;;;;;19.93;8.37;;;3.60;99.90;;;;;;5036058;28;20172;-66
2022/01/26 08:59:03;;;;;;;22.03;10.97;;;3.40;99.90;;;;;;5040052;28;20197;-63
2022/01/26 09:01:29;;;;;;;15.27;8.60;;;3.50;99.90;;;;;;5032401;28;20741;-64
2022/01/26 09:03:54;;;;;;;11.47;6.47;;;3.50;99.90;;;;;;5036854;28;20212;-63
2022/01/26 09:06:21;;;;;;;16.10;8.93;;;3.50;99.90;;;;;;5036603;28;20191;-64
2022/01/26 09:08:52;;;;;;;15.60;7.70;;;3.60;99.90;;;;;;5034694;28;20260;-63
2022/01/26 09:11:22;;;;;;;15.53;10.10;;;3.50;99.90;;;;;;5040869;28;20824;-64
2022/01/26 09:13:55;;;;;;;13.87;8.37;;;3.50;99.90;;;;;;5035930;28;20184;-64
2022/01/26 09:16:23;;;;;;;15.07;8.57;;;3.50;99.90;;;;;;5036230;28;20185;-64
2022/01/26 09:18:52;;;;;;;14.53;9.43;;;3.50;99.90;;;;;;5039467;28;20185;-62
2022/01/26 09:21:19;;;;;;;18.67;9.30;;;3.40;99.90;;;;;;5038553;28;20640;-62
2022/01/26 09:23:45;;;;;;;13.50;7.83;;;3.30;99.90;;;;;;5040139;28;20181;-66
2022/01/26 09:26:11;;;;;;;13.40;8.77;;;3.30;99.90;;;;;;5035135;28;20181;-63
2022/01/26 09:28:36;;;;;;;19.07;9.70;;;3.40;99.90;;;;;;5034535;28;20187;-65
2022/01/26 09:31:02;;;;;;;16.67;9.77;;;3.30;99.90;;;;;;5036728;28;20272;-62
2022/01/26 09:33:28;;;;;;;14.07;7.37;;;3.40;99.90;;;;;;5033537;28;20204;-63
2022/01/26 09:35:54;;;;;;;16.43;8.83;;;3.40;99.90;;;;;;5034664;28;20190;-62
2022/01/26 09:38:19;;;;;;;16.87;9.20;;;3.40;99.90;;;;;;5031826;28;20194;-62
2022/01/26 09:40:49;;;;;;;21.40;9.10;;;3.40;99.90;;;;;;5036039;28;20565;-62
2022/01/26 09:43:16;;;;;;;15.70;8.53;;;3.30;99.90;;;;;;5035605;28;20208;-62
2022/01/26 09:46:00;;;;;;;19.13;9.30;;;3.40;99.90;;;;;;5036176;28;20215;-63
2022/01/26 09:48:26;;;;;;;16.20;9.77;;;3.40;99.90;;;;;;5036940;28;20757;-61
2022/01/26 09:50:55;;;;;;;17.10;9.20;;;3.40;99.90;;;;;;5034880;28;20690;-71
2022/01/26 09:53:27;;;;;;;16.30;9.17;;;3.40;99.90;;;;;;5038582;28;20176;-63
2022/01/26 09:55:53;;;;;;;16.93;8.93;;;3.50;99.90;;;;;;5034992;28;20614;-62
2022/01/26 09:58:20;;;;;;;16.10;9.80;;;3.40;99.90;;;;;;5036768;28;20188;-62
2022/01/26 10:00:46;;;;;;;14.77;8.20;;;3.40;99.90;;;;;;5034677;28;20183;-64
2022/01/26 10:03:13;;;;;;;16.43;8.37;;;3.50;99.90;;;;;;5039271;28;20192;-62
2022/01/26 10:05:42;;;;;;;14.83;8.53;;;3.40;99.90;;;;;;5039175;28;20224;-64
2022/01/26 10:15:27;;;;;;;16.93;9.23;;;3.40;99.90;;;;;;5040191;28;20193;-61
2022/01/26 10:16:51;;;;;;;17.87;9.13;;;3.40;99.90;;;;;;5036753;28;20638;-68
2022/01/26 10:19:07;;;;;;;16.27;9.17;;;3.40;99.90;;;;;;5034707;28;20189;-61
2022/01/26 10:21:44;;;;;;;15.63;7.90;;;3.40;99.90;;;;;;5035000;28;20207;-62
2022/01/26 10:24:10;;;;;;;11.83;7.00;;;3.40;99.90;;;;;;5034823;28;20203;-63
2022/01/26 10:26:35;;;;;;;12.97;6.87;;;3.50;99.90;;;;;;5037229;28;20268;-62
2022/01/26 10:29:03;;;;;;;12.20;6.40;;;3.50;99.90;;;;;;5037406;28;20701;-62
2022/01/26 10:31:39;;;;;;;13.67;6.57;;;3.40;99.90;;;;;;5034261;28;20196;-62
2022/01/26 10:34:14;;;;;;;11.10;6.23;;;3.50;99.90;;;;;;5034893;28;20177;-61
2022/01/26 10:36:46;;;;;;;12.50;5.67;;;3.50;99.90;;;;;;5037013;28;20337;-63
2022/01/26 10:39:26;;;;;;;8.33;5.73;;;3.50;99.90;;;;;;5036901;28;20688;-64
2022/01/26 10:41:55;;;;;;;10.23;5.90;;;3.40;99.90;;;;;;5035437;28;20561;-64
2022/01/26 10:44:45;;;;;;;13.13;6.80;;;3.40;99.90;;;;;;5040118;28;20255;-71
2022/01/26 10:47:11;;;;;;;14.10;7.73;;;3.50;99.90;;;;;;5034963;28;20205;-64
2022/01/26 10:52:27;;;;;;;14.63;6.90;;;3.60;99.90;;;;;;5035713;28;20181;-63
2022/01/26 10:54:53;;;;;;;10.07;5.77;;;3.60;99.90;;;;;;5036213;28;20266;-62
2022/01/26 10:57:19;;;;;;;13.10;7.00;;;3.70;99.90;;;;;;5039015;28;20184;-63
2022/01/26 10:59:47;;;;;;;13.07;6.00;;;3.80;99.90;;;;;;5035202;28;20180;-62
2022/01/26 11:02:14;;;;;;;12.27;5.30;;;3.80;99.90;;;;;;5036471;28;20330;-65
2022/01/26 11:04:42;;;;;;;8.60;4.93;;;3.80;99.90;;;;;;5036432;28;20217;-62
2022/01/26 11:07:12;;;;;;;10.30;6.07;;;3.60;99.90;;;;;;5042554;28;20286;-64
2022/01/26 11:09:40;;;;;;;9.10;4.93;;;3.70;99.90;;;;;;5039099;28;20190;-63
2022/01/26 11:12:09;;;;;;;7.43;5.07;;;3.70;99.90;;;;;;5036882;28;20237;-64
2022/01/26 11:14:56;;;;;;;9.57;5.10;;;3.70;99.90;;;;;;5037087;28;20191;-63
2022/01/26 11:17:27;;;;;;;9.43;5.60;;;3.80;99.90;;;;;;5034074;28;20234;-63
2022/01/26 11:19:53;;;;;;;7.97;4.07;;;3.80;99.90;;;;;;5037143;28;20615;-65
2022/01/26 11:22:26;;;;;;;9.20;5.17;;;3.80;99.90;;;;;;5031803;28;20630;-64
2022/01/26 11:24:52;;;;;;;7.17;4.20;;;3.80;99.90;;;;;;5037324;28;20214;-63
2022/01/26 11:27:18;;;;;;;9.53;4.90;;;3.80;99.90;;;;;;5037821;28;20180;-63
2022/01/26 11:29:48;;;;;;;10.50;5.67;;;3.80;99.90;;;;;;5038937;28;20200;-63
2022/01/26 11:32:21;;;;;;;12.63;4.90;;;3.70;99.90;;;;;;5040094;28;20655;-62
2022/01/26 11:34:53;;;;;;;7.07;4.83;;;3.70;99.90;;;;;;5042413;28;20192;-63
2022/01/26 11:37:42;;;;;;;7.70;4.77;;;3.80;99.90;;;;;;5043933;28;20297;-64
2022/01/26 11:45:29;;;;;;;8.27;4.83;;;3.90;99.90;;;;;;5040731;28;20240;-63
2022/01/26 11:48:05;;;;;;;8.50;4.23;;;3.80;99.90;;;;;;5040834;28;20173;-64
2022/01/26 11:50:31;;;;;;;9.53;4.73;;;3.70;99.90;;;;;;5042415;28;20176;-62
2022/01/26 11:53:09;;;;;;;9.03;4.70;;;3.90;99.90;;;;;;5035498;28;20198;-68
2022/01/26 11:55:40;;;;;;;7.87;4.53;;;3.90;99.90;;;;;;5035403;28;20233;-63
2022/01/26 11:58:18;;;;;;;7.50;4.83;;;3.90;99.90;;;;;;5040465;28;20178;-63
2022/01/26 12:01:08;;;;;;;6.13;3.93;;;3.90;99.90;;;;;;5039575;28;20266;-64
2022/01/26 12:03:42;;;;;;;6.07;4.03;;;3.80;99.90;;;;;;5037021;28;20257;-62
2022/01/26 12:06:13;;;;;;;10.83;3.20;;;3.90;99.90;;;;;;5035271;28;20200;-66
2022/01/26 12:08:39;;;;;;;6.13;4.33;;;3.90;99.90;;;;;;5037808;28;20174;-65
2022/01/26 12:11:10;;;;;;;5.43;4.10;;;3.90;99.90;;;;;;5037832;28;20705;-64
2022/01/26 12:13:38;;;;;;;6.53;3.97;;;3.90;99.90;;;;;;5036806;28;20179;-66
2022/01/26 12:16:15;;;;;;;6.77;3.63;;;3.80;99.90;;;;;;5034178;28;21188;-63
2022/01/26 12:18:57;;;;;;;6.23;3.27;;;3.80;99.90;;;;;;5036073;28;20220;-65
2022/01/26 12:38:05;;;;;;;10.63;5.67;;;3.70;99.90;;;;;;5042354;28;20240;-66
2022/01/26 12:43:36;;;;;;;10.30;5.40;;;3.80;99.90;;;;;;5037386;28;20216;-63
2022/01/26 12:46:22;;;;;;;8.40;5.60;;;3.60;99.90;;;;;;5038449;28;20283;-66
2022/01/26 12:48:58;;;;;;;11.07;5.70;;;3.70;99.90;;;;;;5035417;28;20357;-63
2022/01/26 12:51:26;;;;;;;10.03;5.97;;;3.70;99.90;;;;;;5033461;28;20613;-65
2022/01/26 12:53:53;;;;;;;10.30;5.80;;;3.60;99.90;;;;;;5037453;28;20177;-69
2022/01/26 12:56:19;;;;;;;9.30;5.40;;;3.70;99.90;;;;;;5036216;28;20586;-63
2022/01/26 12:58:45;;;;;;;10.23;6.23;;;3.60;99.90;;;;;;5037597;28;20511;-64
2022/01/26 13:01:15;;;;;;;10.33;5.50;;;3.60;99.90;;;;;;5032705;28;20204;-63
2022/01/26 13:03:41;;;;;;;8.57;5.27;;;3.50;99.90;;;;;;5039972;28;20528;-63
2022/01/26 13:06:24;;;;;;;12.63;5.20;;;3.50;99.90;;;;;;5039808;28;20179;-66
2022/01/26 13:08:55;;;;;;;10.40;5.50;;;3.50;99.90;;;;;;5036253;28;20173;-63
2022/01/26 13:11:25;;;;;;;9.20;5.03;;;3.40;99.90;;;;;;5035256;28;20176;-63
2022/01/26 13:14:20;;;;;;;9.13;5.03;;;3.40;99.90;;;;;;5040508;28;20198;-62
2022/01/26 13:17:02;;;;;;;12.33;5.07;;;3.40;99.90;;;;;;5037995;28;20176;-64
2022/01/26 13:25:07;;;;;;;10.90;5.67;;;3.30;99.90;;;;;;5036272;28;20558;-62
2022/01/26 13:30:25;;;;;;;14.67;5.97;;;3.50;99.90;;;;;;5034835;28;20196;-64
2022/01/26 13:33:30;;;;;;;11.57;5.93;;;3.40;99.90;;;;;;5034352;28;20178;-66
2022/01/26 13:38:51;;;;;;;11.23;6.57;;;3.50;99.90;;;;;;5034392;28;20622;-63
2022/01/26 13:44:26;;;;;;;16.33;7.43;;;3.30;99.90;;;;;;5034282;28;20278;-66
2022/01/26 13:49:39;;;;;;;12.53;7.33;;;3.20;99.90;;;;;;5036429;28;20846;-65
2022/01/26 13:55:02;;;;;;;12.07;7.07;;;3.10;99.90;;;;;;5035820;28;20197;-62
2022/01/26 14:00:11;;;;;;;12.87;7.00;;;3.00;99.90;;;;;;5034771;28;20604;-63
2022/01/26 14:02:38;;;;;;;10.73;6.73;;;3.10;99.90;;;;;;5035250;28;20177;-63
2022/01/26 14:05:05;;;;;;;9.27;6.10;;;3.10;99.90;;;;;;5035259;28;20258;-64
2022/01/26 14:07:31;;;;;;;9.57;6.57;;;3.20;99.90;;;;;;5028732;28;20185;-63
2022/01/26 14:09:56;;;;;;;10.03;5.87;;;3.20;99.90;;;;;;5032544;28;20219;-63
2022/01/26 14:12:27;;;;;;;9.60;5.83;;;3.00;99.90;;;;;;5034713;28;20187;-64
2022/01/26 14:14:56;;;;;;;8.17;5.27;;;3.10;99.90;;;;;;5036939;28;20192;-65
2022/01/26 14:17:55;;;;;;;9.97;6.10;;;3.10;99.90;;;;;;5033910;28;20255;-66
2022/01/26 14:23:15;;;;;;;9.67;5.03;;;2.90;99.90;;;;;;5045282;28;20176;-64
2022/01/26 14:25:50;;;;;;;8.70;5.37;;;3.00;99.90;;;;;;5038462;28;20569;-63
2022/01/26 14:28:19;;;;;;;16.93;9.20;;;3.00;99.90;;;;;;5037539;28;20196;-62
2022/01/26 14:30:58;;;;;;;7.83;5.53;;;3.10;99.90;;;;;;5042860;28;20185;-62
2022/01/26 14:33:40;;;;;;;10.63;6.07;;;3.10;99.90;;;;;;5031870;28;20673;-64
2022/01/26 15:48:49;;;;;;;20.07;9.80;;;2.60;99.90;;;;;;5040451;28;20210;-64
2022/01/26 16:07:54;;;;;;;17.53;8.70;;;2.20;99.90;;;;;;5033952;28;20177;-67
2022/01/26 16:26:42;;;;;;;13.27;7.40;;;2.10;99.90;;;;;;5044410;28;20214;-69
2022/01/26 16:54:06;;;;;;;8.03;4.90;;;2.30;99.90;;;;;;5050963;28;20199;-64
2022/01/26 17:21:15;;;;;;;16.43;7.97;;;2.40;99.90;;;;;;5040769;28;20548;-64
2022/01/26 18:50:04;;;;;;;29.10;13.10;;;2.50;99.90;;;;;;5044831;28;20184;-63
2022/01/26 18:52:29;;;;;;;28.97;14.40;;;2.50;99.90;;;;;;5048847;28;20222;-64
2022/01/26 18:54:55;;;;;;;31.13;13.97;;;2.40;99.90;;;;;;5050071;28;20180;-64
2022/01/26 18:57:21;;;;;;;29.40;13.87;;;2.50;99.90;;;;;;5040918;28;20192;-70
2022/01/26 18:59:47;;;;;;;28.87;13.77;;;2.50;99.90;;;;;;5041697;28;20200;-66
2022/01/26 19:02:13;;;;;;;29.93;13.50;;;2.40;99.90;;;;;;5042885;28;20180;-68
2022/01/26 19:04:47;;;;;;;30.43;14.53;;;2.40;99.90;;;;;;5042985;28;20238;-66
2022/01/26 19:07:15;;;;;;;25.77;13.23;;;2.50;99.90;;;;;;5039499;28;21657;-71
2022/01/26 19:09:44;;;;;;;33.20;13.93;;;2.50;99.90;;;;;;5038979;28;20195;-63
2022/01/26 19:12:13;;;;;;;28.13;13.73;;;2.50;99.90;;;;;;5042648;28;20585;-62
2022/01/26 19:14:45;;;;;;;31.67;14.53;;;2.50;99.90;;;;;;5041247;28;20632;-63
2022/01/26 19:17:18;;;;;;;32.37;15.27;;;2.40;99.90;;;;;;5039535;28;20247;-64
2022/01/26 19:20:03;;;;;;;25.93;13.30;;;2.50;99.90;;;;;;5040506;28;20522;-63
2022/01/26 19:25:32;;;;;;;31.07;15.23;;;2.50;99.90;;;;;;5035423;28;20698;-64
2022/01/26 19:28:08;;;;;;;31.97;14.10;;;2.30;99.90;;;;;;5041253;28;20566;-64
2022/01/26 19:39:59;;;;;;;30.63;14.33;;;2.40;99.90;;;;;;5042187;28;20185;-66
2022/01/26 19:44:31;;;;;;;26.67;13.37;;;2.50;99.90;;;;;;5041475;28;20212;-63
2022/01/26 19:52:12;;;;;;;23.80;11.83;;;2.50;99.90;;;;;;5038803;28;20307;-63